BarenTS Sea — 9VAP5 — position and weather

sailwx.info

Track history (hours):
 
Tides and Currents Weather Stations Pressure Air Temp Water Temp Dewpoint Dewpoint Depression Visibility Wind Speed Wind Dir Waves Ship Positions

BarenTS Sea

Last reported at 2014-Oct-21 19:29 UTC. Time now 2014-Nov-01 14:02 UTC.
Position N 38°26' E 008°48'.
Warning: this ship's position is 10 days out of date.

Length 248 m; draft 8 m.

Type: Tanker. MMSI: 563909000.

Date/timePositionNaut miles runAvg speedWind from/ knotsBaromVisibWave heightAir tempDewpointWater temp
2014-Oct-21 19:29N 38°26' E 008°48'910.0
2014-Oct-21 18:33N 38°32' E 008°38'1010.0
2014-Oct-21 17:33N 38°36' E 008°27'8 8.2
2014-Oct-21 16:33N 38°40' E 008°17'20 8.5
2014-Oct-21 14:12N 38°50' E 007°55'7 8.3
2014-Oct-21 13:24N 38°53' E 007°47'18 8.1
2014-Oct-21 11:10N 39°02' E 007°27'5 2.4
2014-Oct-21 09:16N 39°05' E 007°23'1 0.9
2014-Oct-21 08:33N 39°05' E 007°22'24 1.1
2014-Oct-20 10:20N 39°16' E 006°54'17 9.6
2014-Oct-20 08:32N 39°24' E 006°35'67 9.6
2014-Oct-20 01:33N 39°57' E 005°18'12 9.4
2014-Oct-20 00:13N 40°03' E 005°04'17 9.0
2014-Oct-19 22:23N 40°11' E 004°45'10 9.4
2014-Oct-19 21:19N 40°16' E 004°34'10 9.5
2014-Oct-19 20:13N 40°21' E 004°22'7 9.7
2014-Oct-19 19:33N 40°24' E 004°14'12 9.5
2014-Oct-19 18:19N 40°30' E 004°01'1010.7
2014-Oct-19 17:20N 40°32' E 003°48'6 8.1
2014-Oct-19 16:33N 40°33' E 003°39'1010.1
2014-Oct-19 15:32N 40°36' E 003°26'1010.0
2014-Oct-19 14:33N 40°38' E 003°14'10 9.9
2014-Oct-19 13:32N 40°40' E 003°01'1110.3
2014-Oct-19 12:28N 40°42' E 002°46'910.1
2014-Oct-19 11:33N 40°44' E 002°35'11 9.6
2014-Oct-19 10:24N 40°47' E 002°20'12 9.4
2014-Oct-19 09:10N 40°49' E 002°05'19 2.0
2014-Oct-18 23:33N 40°54' E 001°41'1 1.0
2014-Oct-18 22:15N 40°54' E 001°43'1 1.0
2014-Oct-18 21:33N 40°54' E 001°44'1 1.0
2014-Oct-18 20:29N 40°54' E 001°45'1 0.9
2014-Oct-18 19:08N 40°54' E 001°47'1 0.9
2014-Oct-18 18:32N 40°54' E 001°47'1 0.9
2014-Oct-18 17:30N 40°54' E 001°49'1 0.9
2014-Oct-18 16:33N 40°54' E 001°50'1 1.0
2014-Oct-18 15:33N 40°53' E 001°51'1 1.0
2014-Oct-18 14:33N 40°53' E 001°52'1 1.0
2014-Oct-18 13:33N 40°53' E 001°53'1 1.0
2014-Oct-18 12:33N 40°53' E 001°55'1 0.9
2014-Oct-18 11:33N 40°52' E 001°56'1 0.8
2014-Oct-18 10:33N 40°52' E 001°57'1 0.7
2014-Oct-18 09:30N 40°52' E 001°58'1 0.6
2014-Oct-18 08:30N 40°52' E 001°58'0 0.4
2014-Oct-18 07:34N 40°52' E 001°59'0 0.4
2014-Oct-18 06:33N 40°52' E 001°59'0 0.3
2014-Oct-18 05:33N 40°51' E 001°60'0 0.3
2014-Oct-18 04:33N 40°51' E 001°60'0 0.4
2014-Oct-18 03:33N 40°51' E 002°00'0 0.4
2014-Oct-18 02:33N 40°50' E 002°00'0 0.4
2014-Oct-18 01:33N 40°50' E 002°01'0 0.4
2014-Oct-18 00:33N 40°50' E 002°01'0 0.3
2014-Oct-17 23:33N 40°50' E 002°01'0 0.3
2014-Oct-17 22:33N 40°49' E 002°01'0 0.3
2014-Oct-17 21:33N 40°49' E 002°02'0 0.4
2014-Oct-17 20:33N 40°48' E 002°02'1 0.5
2014-Oct-17 19:34N 40°48' E 002°02'1 0.7
2014-Oct-17 18:33N 40°47' E 002°02'1 0.7
2014-Oct-17 17:33N 40°47' E 002°03'3 3.4
2014-Oct-17 16:33N 40°46' E 001°58'9 9.3
2014-Oct-17 15:34N 40°48' E 001°46'9 9.3
2014-Oct-17 14:34N 40°48' E 001°34'9 9.4
2014-Oct-17 13:33N 40°49' E 001°21'9 9.2
2014-Oct-17 12:33N 40°51' E 001°09'0 0.2
2014-Oct-17 10:06N 40°52' E 001°09'0 0.0
2014-Oct-17 09:24N 40°52' E 001°09'0 0.0
2014-Oct-17 08:24N 40°52' E 001°09'0 0.0
2014-Oct-17 07:12N 40°52' E 001°09'0 0.1
2014-Oct-17 06:30N 40°52' E 001°09'0 0.0
2014-Oct-17 04:27N 40°52' E 001°09'0 0.0
2014-Oct-17 03:33N 40°52' E 001°09'0 0.0
2014-Oct-17 02:24N 40°52' E 001°09'0 0.0
2014-Oct-17 01:30N 40°52' E 001°09'0 0.0
2014-Oct-17 00:33N 40°52' E 001°09'2 1.8
2014-Oct-16 23:26N 40°53' E 001°10'12 3.7
2014-Oct-16 20:15N 41°04' E 001°17'0 0.1
2014-Oct-16 19:21N 41°04' E 001°18'0 0.0
2014-Oct-16 17:09N 41°04' E 001°17'0 0.0
2014-Oct-16 16:33N 41°04' E 001°18'0 0.0
2014-Oct-16 15:33N 41°04' E 001°17'0 0.0
2014-Oct-16 14:30N 41°04' E 001°17'0 0.0
2014-Oct-16 13:12N 41°04' E 001°17'0 0.0
2014-Oct-16 12:15N 41°04' E 001°17'0 0.3
2014-Oct-16 11:29N 41°04' E 001°17'3 3.2
2014-Oct-16 10:33N 41°04' E 001°13'0 0.1
2014-Oct-16 09:29N 41°04' E 001°13'0 0.0
2014-Oct-16 08:17N 41°04' E 001°13'0 0.0
2014-Oct-15 22:29N 41°04' E 001°13'0 0.0
2014-Oct-15 21:05N 41°04' E 001°13'23 1.0
2014-Oct-14 23:32N 40°57' E 001°42'1110.8
2014-Oct-14 22:30N 40°54' E 001°56'1010.8
2014-Oct-14 21:33N 40°52' E 002°09'1110.7
2014-Oct-14 20:33N 40°49' E 002°23'1010.4
2014-Oct-14 19:33N 40°47' E 002°36'1010.1
2014-Oct-14 18:33N 40°44' E 002°49'1010.0
2014-Oct-14 17:33N 40°43' E 003°02'10 9.7
2014-Oct-14 16:33N 40°39' E 003°14'9 9.5
2014-Oct-14 15:33N 40°37' E 003°26'26810.2
2014-Oct-13 13:23N 38°31' E 008°32'1010.3
2014-Oct-13 12:22N 38°27' E 008°45'810.1
2014-Oct-13 11:33N 38°23' E 008°54'1010.2
2014-Oct-13 10:32N 38°21' E 009°07'10 9.9
2014-Oct-13 09:32N 38°19' E 009°19'1010.1
2014-Oct-13 08:33N 38°13' E 009°30'11 9.7
2014-Oct-13 07:28N 38°09' E 009°42'910.0
2014-Oct-13 06:33N 38°05' E 009°52'1010.2
2014-Oct-13 05:33N 38°01' E 010°04'1010.2
2014-Oct-13 04:33N 37°55' E 010°15'10 9.8
2014-Oct-13 03:33N 37°50' E 010°26'2110.1
2014-Oct-13 01:31N 37°40' E 010°48'1010.5
2014-Oct-13 00:31N 37°34' E 010°59'3410.7
2014-Oct-12 21:17N 37°17' E 011°36'810.6
2014-Oct-12 20:33N 37°13' E 011°45'1010.4
2014-Oct-12 19:33N 37°08' E 011°57'1310.7
2014-Oct-12 18:20N 37°01' E 012°11'810.3
2014-Oct-12 17:33N 36°57' E 012°19'1010.4
2014-Oct-12 16:33N 36°51' E 012°30'1110.6
2014-Oct-12 15:33N 36°43' E 012°38'1410.8
2014-Oct-12 14:14N 36°32' E 012°50'911.0
2014-Oct-12 13:25N 36°25' E 012°56'1210.5
2014-Oct-12 12:19N 36°16' E 013°05'910.1
2014-Oct-12 11:25N 36°07' E 013°10'910.1
2014-Oct-12 10:33N 35°60' E 013°15'1010.2
2014-Oct-12 09:33N 35°50' E 013°20'1010.0
2014-Oct-12 08:33N 35°41' E 013°25'1010.1
2014-Oct-12 07:33N 35°32' E 013°30'10 9.7
2014-Oct-12 06:33N 35°22' E 013°30'10 9.9
2014-Oct-12 05:33N 35°12' E 013°30'1010.4
2014-Oct-12 04:33N 35°02' E 013°30'7710.5
2014-Oct-11 21:13N 33°48' E 013°06'710.6
2014-Oct-11 20:33N 33°41' E 013°03'1010.2
2014-Oct-11 19:33N 33°33' E 012°55'  
Track history (hours):
 
Tides and Currents Weather Stations Pressure Air Temp Water Temp Dewpoint Dewpoint Depression Visibility Wind Speed Wind Dir Waves Ship Positions

BarenTS Sea

Last reported at 2014-Oct-21 19:29 UTC. Time now 2014-Nov-01 14:02 UTC.
Position N 38°26' E 008°48'.
Warning: this ship's position is 10 days out of date.

Length 248 m; draft 8 m.

Type: Tanker. MMSI: 563909000.

Date/timePositionNaut miles runAvg speedWind from/ knotsBaromVisibWave heightAir tempDewpointWater temp
2014-Oct-21 19:29N 38°26' E 008°48'910.0
2014-Oct-21 18:33N 38°32' E 008°38'1010.0
2014-Oct-21 17:33N 38°36' E 008°27'8 8.2
2014-Oct-21 16:33N 38°40' E 008°17'20 8.5
2014-Oct-21 14:12N 38°50' E 007°55'7 8.3
2014-Oct-21 13:24N 38°53' E 007°47'18 8.1
2014-Oct-21 11:10N 39°02' E 007°27'5 2.4
2014-Oct-21 09:16N 39°05' E 007°23'1 0.9
2014-Oct-21 08:33N 39°05' E 007°22'24 1.1
2014-Oct-20 10:20N 39°16' E 006°54'17 9.6
2014-Oct-20 08:32N 39°24' E 006°35'67 9.6
2014-Oct-20 01:33N 39°57' E 005°18'12 9.4
2014-Oct-20 00:13N 40°03' E 005°04'17 9.0
2014-Oct-19 22:23N 40°11' E 004°45'10 9.4
2014-Oct-19 21:19N 40°16' E 004°34'10 9.5
2014-Oct-19 20:13N 40°21' E 004°22'7 9.7
2014-Oct-19 19:33N 40°24' E 004°14'12 9.5
2014-Oct-19 18:19N 40°30' E 004°01'1010.7
2014-Oct-19 17:20N 40°32' E 003°48'6 8.1
2014-Oct-19 16:33N 40°33' E 003°39'1010.1
2014-Oct-19 15:32N 40°36' E 003°26'1010.0
2014-Oct-19 14:33N 40°38' E 003°14'10 9.9
2014-Oct-19 13:32N 40°40' E 003°01'1110.3
2014-Oct-19 12:28N 40°42' E 002°46'910.1
2014-Oct-19 11:33N 40°44' E 002°35'11 9.6
2014-Oct-19 10:24N 40°47' E 002°20'12 9.4
2014-Oct-19 09:10N 40°49' E 002°05'19 2.0
2014-Oct-18 23:33N 40°54' E 001°41'1 1.0
2014-Oct-18 22:15N 40°54' E 001°43'1 1.0
2014-Oct-18 21:33N 40°54' E 001°44'1 1.0
2014-Oct-18 20:29N 40°54' E 001°45'1 0.9
2014-Oct-18 19:08N 40°54' E 001°47'1 0.9
2014-Oct-18 18:32N 40°54' E 001°47'1 0.9
2014-Oct-18 17:30N 40°54' E 001°49'1 0.9
2014-Oct-18 16:33N 40°54' E 001°50'1 1.0
2014-Oct-18 15:33N 40°53' E 001°51'1 1.0
2014-Oct-18 14:33N 40°53' E 001°52'1 1.0
2014-Oct-18 13:33N 40°53' E 001°53'1 1.0
2014-Oct-18 12:33N 40°53' E 001°55'1 0.9
2014-Oct-18 11:33N 40°52' E 001°56'1 0.8
2014-Oct-18 10:33N 40°52' E 001°57'1 0.7
2014-Oct-18 09:30N 40°52' E 001°58'1 0.6
2014-Oct-18 08:30N 40°52' E 001°58'0 0.4
2014-Oct-18 07:34N 40°52' E 001°59'0 0.4
2014-Oct-18 06:33N 40°52' E 001°59'0 0.3
2014-Oct-18 05:33N 40°51' E 001°60'0 0.3
2014-Oct-18 04:33N 40°51' E 001°60'0 0.4
2014-Oct-18 03:33N 40°51' E 002°00'0 0.4
2014-Oct-18 02:33N 40°50' E 002°00'0 0.4
2014-Oct-18 01:33N 40°50' E 002°01'0 0.4
2014-Oct-18 00:33N 40°50' E 002°01'0 0.3
2014-Oct-17 23:33N 40°50' E 002°01'0 0.3
2014-Oct-17 22:33N 40°49' E 002°01'0 0.3
2014-Oct-17 21:33N 40°49' E 002°02'0 0.4
2014-Oct-17 20:33N 40°48' E 002°02'1 0.5
2014-Oct-17 19:34N 40°48' E 002°02'1 0.7
2014-Oct-17 18:33N 40°47' E 002°02'1 0.7
2014-Oct-17 17:33N 40°47' E 002°03'3 3.4
2014-Oct-17 16:33N 40°46' E 001°58'9 9.3
2014-Oct-17 15:34N 40°48' E 001°46'9 9.3
2014-Oct-17 14:34N 40°48' E 001°34'9 9.4
2014-Oct-17 13:33N 40°49' E 001°21'9 9.2
2014-Oct-17 12:33N 40°51' E 001°09'0 0.2
2014-Oct-17 10:06N 40°52' E 001°09'0 0.0
2014-Oct-17 09:24N 40°52' E 001°09'0 0.0
2014-Oct-17 08:24N 40°52' E 001°09'0 0.0
2014-Oct-17 07:12N 40°52' E 001°09'0 0.1
2014-Oct-17 06:30N 40°52' E 001°09'0 0.0
2014-Oct-17 04:27N 40°52' E 001°09'0 0.0
2014-Oct-17 03:33N 40°52' E 001°09'0 0.0
2014-Oct-17 02:24N 40°52' E 001°09'0 0.0
2014-Oct-17 01:30N 40°52' E 001°09'0 0.0
2014-Oct-17 00:33N 40°52' E 001°09'2 1.8
2014-Oct-16 23:26N 40°53' E 001°10'12 3.7
2014-Oct-16 20:15N 41°04' E 001°17'0 0.1
2014-Oct-16 19:21N 41°04' E 001°18'0 0.0
2014-Oct-16 17:09N 41°04' E 001°17'0 0.0
2014-Oct-16 16:33N 41°04' E 001°18'0 0.0
2014-Oct-16 15:33N 41°04' E 001°17'0 0.0
2014-Oct-16 14:30N 41°04' E 001°17'0 0.0
2014-Oct-16 13:12N 41°04' E 001°17'0 0.0
2014-Oct-16 12:15N 41°04' E 001°17'0 0.3
2014-Oct-16 11:29N 41°04' E 001°17'3 3.2
2014-Oct-16 10:33N 41°04' E 001°13'0 0.1
2014-Oct-16 09:29N 41°04' E 001°13'0 0.0
2014-Oct-16 08:17N 41°04' E 001°13'0 0.0
2014-Oct-15 22:29N 41°04' E 001°13'0 0.0
2014-Oct-15 21:05N 41°04' E 001°13'23 1.0
2014-Oct-14 23:32N 40°57' E 001°42'1110.8
2014-Oct-14 22:30N 40°54' E 001°56'1010.8
2014-Oct-14 21:33N 40°52' E 002°09'1110.7
2014-Oct-14 20:33N 40°49' E 002°23'1010.4
2014-Oct-14 19:33N 40°47' E 002°36'1010.1
2014-Oct-14 18:33N 40°44' E 002°49'1010.0
2014-Oct-14 17:33N 40°43' E 003°02'10 9.7
2014-Oct-14 16:33N 40°39' E 003°14'9 9.5
2014-Oct-14 15:33N 40°37' E 003°26'26810.2
2014-Oct-13 13:23N 38°31' E 008°32'1010.3
2014-Oct-13 12:22N 38°27' E 008°45'810.1
2014-Oct-13 11:33N 38°23' E 008°54'1010.2
2014-Oct-13 10:32N 38°21' E 009°07'10 9.9
2014-Oct-13 09:32N 38°19' E 009°19'1010.1
2014-Oct-13 08:33N 38°13' E 009°30'11 9.7
2014-Oct-13 07:28N 38°09' E 009°42'910.0
2014-Oct-13 06:33N 38°05' E 009°52'1010.2
2014-Oct-13 05:33N 38°01' E 010°04'1010.2
2014-Oct-13 04:33N 37°55' E 010°15'10 9.8
2014-Oct-13 03:33N 37°50' E 010°26'2110.1
2014-Oct-13 01:31N 37°40' E 010°48'1010.5
2014-Oct-13 00:31N 37°34' E 010°59'3410.7
2014-Oct-12 21:17N 37°17' E 011°36'810.6
2014-Oct-12 20:33N 37°13' E 011°45'1010.4
2014-Oct-12 19:33N 37°08' E 011°57'1310.7
2014-Oct-12 18:20N 37°01' E 012°11'810.3
2014-Oct-12 17:33N 36°57' E 012°19'1010.4
2014-Oct-12 16:33N 36°51' E 012°30'1110.6
2014-Oct-12 15:33N 36°43' E 012°38'1410.8
2014-Oct-12 14:14N 36°32' E 012°50'911.0
2014-Oct-12 13:25N 36°25' E 012°56'1210.5
2014-Oct-12 12:19N 36°16' E 013°05'910.1
2014-Oct-12 11:25N 36°07' E 013°10'910.1
2014-Oct-12 10:33N 35°60' E 013°15'1010.2
2014-Oct-12 09:33N 35°50' E 013°20'1010.0
2014-Oct-12 08:33N 35°41' E 013°25'1010.1
2014-Oct-12 07:33N 35°32' E 013°30'10 9.7
2014-Oct-12 06:33N 35°22' E 013°30'10 9.9
2014-Oct-12 05:33N 35°12' E 013°30'1010.4
2014-Oct-12 04:33N 35°02' E 013°30'7710.5
2014-Oct-11 21:13N 33°48' E 013°06'710.6
2014-Oct-11 20:33N 33°41' E 013°03'1010.2
2014-Oct-11 19:33N 33°33' E 012°55'  

Dump ship's entire track history